Time;durP1;ratioP1;P1;durP2;ratioP2;P2;SDS_P1;SDS_P2;PMS_P1;PMS_P2;Temp;Humidity;BMP_temperature;BMP_pressure;BME280_temperature;BME280_humidity;BME280_pressure;Samples;Min_cycle;Max_cycle;Signal;HPM_P1;HPM_P2
2022/11/13 00:00:31;;;;;;;12.10;6.90;;;4.20;99.90;;;;;;4992373;28;20495;-70
2022/11/13 00:02:58;;;;;;;9.80;6.33;;;4.20;99.90;;;;;;4981910;28;20861;-69
2022/11/13 00:05:24;;;;;;;8.23;4.90;;;4.30;99.90;;;;;;4989786;28;20465;-69
2022/11/13 00:07:51;;;;;;;10.43;4.90;;;4.30;99.90;;;;;;4989518;28;20464;-69
2022/11/13 00:10:18;;;;;;;6.23;5.10;;;4.20;99.90;;;;;;4983650;28;20922;-70
2022/11/13 00:12:45;;;;;;;7.40;4.30;;;4.20;99.90;;;;;;4972920;28;20821;-69
2022/11/13 00:15:11;;;;;;;7.23;4.70;;;4.10;99.90;;;;;;4990285;28;20465;-70
2022/11/13 00:17:40;;;;;;;8.57;4.40;;;4.00;99.90;;;;;;4986437;28;20513;-69
2022/11/13 00:20:07;;;;;;;12.23;6.50;;;4.00;99.90;;;;;;4993170;28;20450;-69
2022/11/13 00:22:34;;;;;;;4.30;3.80;;;4.00;99.90;;;;;;4981090;28;20491;-70
2022/11/13 00:25:00;;;;;;;7.33;3.47;;;4.00;99.90;;;;;;4990382;28;20457;-70
2022/11/13 00:27:29;;;;;;;6.13;4.10;;;4.00;99.90;;;;;;4981224;28;20471;-70
2022/11/13 00:29:56;;;;;;;6.03;5.40;;;3.90;99.90;;;;;;4988592;28;20512;-70
2022/11/13 00:32:23;;;;;;;11.13;5.00;;;3.90;99.90;;;;;;4980149;28;20522;-69
2022/11/13 00:34:51;;;;;;;6.50;5.13;;;4.00;99.90;;;;;;4987183;28;20450;-69
2022/11/13 00:37:18;;;;;;;6.20;4.67;;;3.90;99.90;;;;;;4979871;28;20458;-70
2022/11/13 00:39:45;;;;;;;11.33;5.23;;;4.00;99.90;;;;;;4986397;28;20507;-69
2022/11/13 00:42:12;;;;;;;5.83;3.83;;;3.90;99.90;;;;;;4992121;28;20457;-69
2022/11/13 00:44:39;;;;;;;6.37;4.60;;;3.80;99.90;;;;;;4986251;28;20453;-68
2022/11/13 00:47:06;;;;;;;6.90;3.63;;;3.80;99.90;;;;;;4972232;28;20461;-69
2022/11/13 00:49:33;;;;;;;9.30;4.20;;;3.80;99.90;;;;;;4979288;28;20507;-69
2022/11/13 00:52:01;;;;;;;6.23;3.80;;;3.80;99.90;;;;;;4977233;28;20458;-69
2022/11/13 00:54:28;;;;;;;9.23;5.30;;;3.70;99.90;;;;;;4986221;28;20494;-69
2022/11/13 00:56:55;;;;;;;5.50;3.93;;;3.70;99.90;;;;;;4990203;28;20464;-70
2022/11/13 00:59:22;;;;;;;4.93;3.47;;;3.60;99.90;;;;;;4972878;28;20458;-69
2022/11/13 01:01:48;;;;;;;6.27;4.70;;;3.80;99.90;;;;;;4989469;28;20858;-70
2022/11/13 01:04:15;;;;;;;9.00;3.87;;;3.90;99.90;;;;;;4972792;28;20490;-71
2022/11/13 01:06:42;;;;;;;5.07;3.93;;;3.70;99.90;;;;;;4988275;28;20469;-69
2022/11/13 01:09:10;;;;;;;7.23;5.50;;;3.70;99.90;;;;;;4978024;28;20489;-69
2022/11/13 01:11:37;;;;;;;6.87;4.30;;;3.80;99.90;;;;;;4973743;28;20450;-68
2022/11/13 01:14:04;;;;;;;5.60;4.43;;;3.60;99.90;;;;;;4981309;28;20457;-69
2022/11/13 01:16:30;;;;;;;5.43;4.10;;;3.70;99.90;;;;;;4989743;28;20936;-69
2022/11/13 01:18:57;;;;;;;8.27;4.43;;;3.70;99.90;;;;;;4972077;28;20806;-69
2022/11/13 01:21:26;;;;;;;3.63;3.00;;;3.70;99.90;;;;;;4983874;28;20456;-70
2022/11/13 01:23:53;;;;;;;6.57;3.90;;;3.60;99.90;;;;;;4981749;28;20497;-70
2022/11/13 01:26:24;;;;;;;5.33;3.47;;;3.50;99.90;;;;;;4982973;28;20819;-69
2022/11/13 01:28:51;;;;;;;4.33;3.50;;;3.60;99.90;;;;;;4987066;28;20445;-70
2022/11/13 01:31:20;;;;;;;7.43;3.40;;;3.50;99.90;;;;;;4985288;28;20462;-70
2022/11/13 01:33:47;;;;;;;6.13;4.00;;;3.50;99.90;;;;;;4979029;28;20459;-70
2022/11/13 01:36:16;;;;;;;5.33;3.97;;;3.40;99.90;;;;;;4973151;28;20820;-70
2022/11/13 01:38:43;;;;;;;4.40;3.50;;;3.40;99.90;;;;;;4970517;28;20457;-69
2022/11/13 01:41:16;;;;;;;7.00;5.10;;;3.40;99.90;;;;;;4984088;28;20471;-69
2022/11/13 01:43:45;;;;;;;4.90;3.03;;;3.50;99.90;;;;;;4978467;28;20483;-69
2022/11/13 01:46:27;;;;;;;8.23;3.70;;;3.40;99.90;;;;;;4977899;28;20943;-69
2022/11/13 01:48:59;;;;;;;6.83;4.33;;;3.30;99.90;;;;;;4982965;28;20439;-69
2022/11/13 01:51:30;;;;;;;7.97;3.57;;;3.40;99.90;;;;;;4980759;28;20455;-70
2022/11/13 01:53:58;;;;;;;3.90;2.93;;;3.40;99.90;;;;;;4977336;28;20939;-70
2022/11/13 01:56:25;;;;;;;7.73;6.37;;;3.50;99.90;;;;;;4980799;28;20453;-70
2022/11/13 01:59:01;;;;;;;7.60;3.93;;;3.70;99.90;;;;;;4984015;28;20462;-69
2022/11/13 02:01:28;;;;;;;6.30;3.70;;;;;;;;;;4982465;28;20483;-69
2022/11/13 02:03:55;;;;;;;5.80;3.67;;;;;;;;;;4985355;28;20777;-70
2022/11/13 02:06:23;;;;;;;3.87;3.40;;;;;;;;;;4972199;28;20452;-69
2022/11/13 02:08:51;;;;;;;5.40;3.77;;;;;;;;;;4979304;28;20473;-69
2022/11/13 02:11:18;;;;;;;4.80;3.70;;;;;;;;;;4973727;28;20464;-70
2022/11/13 02:13:45;;;;;;;6.73;4.70;;;;;;;;;;4984519;28;20460;-70
2022/11/13 02:16:14;;;;;;;4.83;4.43;;;;;;;;;;4972087;28;20454;-70
2022/11/13 02:18:41;;;;;;;3.67;2.70;;;;;;;;;;4977737;28;20451;-69
2022/11/13 02:21:13;;;;;;;4.53;3.67;;;;;;;;;;4977782;28;20465;-70
2022/11/13 02:23:44;;;;;;;6.60;3.80;;;;;;;;;;4971171;28;20477;-69
2022/11/13 02:26:12;;;;;;;5.50;3.70;;;;;;;;;;4974760;28;20449;-69
2022/11/13 02:28:39;;;;;;;4.20;3.37;;;;;;;;;;4982209;28;20467;-70
2022/11/13 02:31:07;;;;;;;8.43;6.13;;;;;;;;;;4973296;28;20466;-70
2022/11/13 02:33:34;;;;;;;5.00;3.60;;;;;;;;;;4982268;28;20463;-70
2022/11/13 02:36:02;;;;;;;5.83;3.60;;;;;;;;;;4973017;28;20457;-70
2022/11/13 02:38:29;;;;;;;4.80;3.37;;;;;;;;;;4981565;28;20492;-70
2022/11/13 02:40:56;;;;;;;5.13;2.67;;;;;;;;;;4979368;28;20539;-70
2022/11/13 02:43:24;;;;;;;4.23;2.57;;;;;;;;;;4980807;28;20496;-70
2022/11/13 02:45:51;;;;;;;5.00;2.90;;;;;;;;;;4973582;28;20453;-70
2022/11/13 02:48:18;;;;;;;5.50;3.27;;;;;;;;;;4980829;28;20459;-70
2022/11/13 02:50:46;;;;;;;5.40;3.67;;;;;;;;;;4974748;28;20469;-68
2022/11/13 02:53:13;;;;;;;7.40;3.57;;;;;;;;;;4985702;28;20453;-69
2022/11/13 02:55:40;;;;;;;4.50;3.47;;;;;;;;;;4989630;28;20455;-67
2022/11/13 02:58:07;;;;;;;6.03;3.77;;;;;;;;;;4988979;28;20467;-69
2022/11/13 03:00:36;;;;;;;8.30;3.97;;;;;;;;;;4993226;28;20491;-68
2022/11/13 03:03:03;;;;;;;4.30;3.77;;;;;;;;;;4993181;28;20450;-69
2022/11/13 03:05:30;;;;;;;3.57;3.10;;;;;;;;;;4978842;28;20446;-69
2022/11/13 03:07:57;;;;;;;8.23;3.63;;;;;;;;;;4982387;28;20472;-69
2022/11/13 03:10:24;;;;;;;5.13;3.20;;;;;;;;;;4983287;28;20822;-68
2022/11/13 03:12:51;;;;;;;3.93;2.80;;;;;;;;;;4986207;28;20538;-69
2022/11/13 03:15:19;;;;;;;5.67;3.60;;;;;;;;;;4976114;28;20463;-68
2022/11/13 03:17:47;;;;;;;3.50;2.47;;;;;;;;;;4986382;28;20453;-69
2022/11/13 03:20:14;;;;;;;5.27;4.30;;;;;;;;;;4975479;28;20447;-68
2022/11/13 03:22:41;;;;;;;3.93;3.40;;;;;;;;;;4975810;28;20461;-69
2022/11/13 03:25:09;;;;;;;8.73;3.73;;;;;;;;;;4980807;28;20498;-69
2022/11/13 03:27:36;;;;;;;4.20;3.30;;;;;;;;;;4981780;28;20541;-68
2022/11/13 03:30:05;;;;;;;4.60;3.23;;;;;;;;;;4981262;28;20462;-69
2022/11/13 03:32:32;;;;;;;3.17;2.67;;;;;;;;;;4983452;28;20452;-68
2022/11/13 03:35:00;;;;;;;4.13;3.23;;;;;;;;;;4985896;28;20550;-69
2022/11/13 03:37:27;;;;;;;6.30;3.23;;;;;;;;;;4979676;28;20451;-69
2022/11/13 03:39:54;;;;;;;4.07;2.97;;;;;;;;;;4988546;28;20461;-69
2022/11/13 03:42:21;;;;;;;4.17;2.47;;;3.40;99.90;;;;;;4992562;28;21088;-69
2022/11/13 03:44:48;;;;;;;3.00;2.73;;;;;;;;;;4985166;28;20855;-69
2022/11/13 03:47:15;;;;;;;4.20;3.50;;;;;;;;;;4990293;28;20448;-69
2022/11/13 03:49:43;;;;;;;5.03;2.87;;;;;;;;;;4981077;28;20446;-69
2022/11/13 03:52:11;;;;;;;3.83;2.77;;;;;;;;;;4992825;28;20456;-69
2022/11/13 03:54:39;;;;;;;5.47;3.67;;;;;;;;;;4988167;28;20455;-68
2022/11/13 03:57:06;;;;;;;5.00;3.20;;;;;;;;;;4985197;28;20456;-69
2022/11/13 03:59:33;;;;;;;4.20;3.63;;;;;;;;;;4993481;28;20453;-69
2022/11/13 04:02:00;;;;;;;5.13;3.13;;;;;;;;;;4990866;28;20491;-69
2022/11/13 04:04:27;;;;;;;4.43;3.70;;;;;;;;;;4992510;28;20488;-69
2022/11/13 04:06:54;;;;;;;3.37;3.00;;;;;;;;;;4979602;28;20458;-69
2022/11/13 04:09:22;;;;;;;3.90;3.30;;;2.80;99.90;;;;;;4989987;28;20467;-69
2022/11/13 04:11:49;;;;;;;4.70;4.20;;;4.20;1.00;;;;;;4978557;28;20460;-69
2022/11/13 04:14:16;;;;;;;3.00;2.60;;;4.00;1.00;;;;;;4991467;28;20458;-70
2022/11/13 04:16:43;;;;;;;5.13;3.20;;;4.00;88.30;;;;;;4979669;28;20819;-69
2022/11/13 04:19:09;;;;;;;4.47;3.47;;;4.30;1.00;;;;;;4992490;28;20459;-69
2022/11/13 04:21:36;;;;;;;4.50;3.10;;;3.90;2.30;;;;;;4990069;28;20468;-68
2022/11/13 04:24:03;;;;;;;3.73;2.93;;;4.00;35.40;;;;;;4992427;28;21066;-69
2022/11/13 04:26:32;;;;;;;3.30;2.87;;;4.10;33.70;;;;;;4980451;28;20453;-69
2022/11/13 04:28:59;;;;;;;3.23;2.93;;;4.30;1.00;;;;;;4991713;28;20461;-69
2022/11/13 04:31:26;;;;;;;4.80;3.03;;;4.10;1.00;;;;;;4991397;28;20882;-68
2022/11/13 04:33:53;;;;;;;3.17;2.77;;;4.20;1.00;;;;;;4984603;28;20456;-69
2022/11/13 04:36:20;;;;;;;6.17;3.00;;;;;;;;;;4974739;28;20471;-69
2022/11/13 04:38:47;;;;;;;3.17;2.43;;;;;;;;;;4977706;28;20455;-69
2022/11/13 04:44:00;;;;;;;4.70;3.20;;;4.30;1.00;;;;;;4980007;28;20671;-69
2022/11/13 04:46:27;;;;;;;6.80;4.17;;;3.80;99.90;;;;;;4980515;28;20453;-69
2022/11/13 04:48:54;;;;;;;7.03;4.13;;;3.90;99.90;;;;;;4976603;28;20969;-69
2022/11/13 04:51:20;;;;;;;6.50;3.50;;;4.00;99.90;;;;;;4984032;28;20458;-69
2022/11/13 04:53:47;;;;;;;5.50;3.53;;;3.90;99.90;;;;;;4972743;28;20963;-69
2022/11/13 04:56:14;;;;;;;7.40;3.50;;;4.10;99.90;;;;;;4984237;28;20947;-69
2022/11/13 04:58:41;;;;;;;6.27;3.70;;;4.40;99.90;;;;;;4972935;28;20455;-69
2022/11/13 05:01:09;;;;;;;6.50;4.30;;;4.20;99.90;;;;;;4984688;28;20485;-69
2022/11/13 05:03:37;;;;;;;6.13;3.90;;;3.90;99.90;;;;;;4989448;28;20445;-68
2022/11/13 05:06:05;;;;;;;3.83;3.43;;;4.00;99.90;;;;;;4983597;28;20448;-69
2022/11/13 05:08:32;;;;;;;6.20;4.93;;;4.10;99.90;;;;;;4981212;28;20469;-69
2022/11/13 05:10:59;;;;;;;8.03;4.60;;;3.80;99.90;;;;;;4974171;28;20554;-69
2022/11/13 05:13:26;;;;;;;8.27;5.10;;;3.90;99.90;;;;;;4985857;28;20519;-69
2022/11/13 05:16:00;;;;;;;6.80;5.13;;;3.80;99.90;;;;;;4972417;28;20459;-69
2022/11/13 05:18:29;;;;;;;7.13;4.60;;;3.70;99.90;;;;;;4985692;28;20451;-69
2022/11/13 05:20:55;;;;;;;8.00;3.90;;;3.80;99.90;;;;;;4972211;28;20852;-69
2022/11/13 05:23:22;;;;;;;9.07;4.10;;;3.90;99.90;;;;;;4985577;28;20447;-69
2022/11/13 05:25:49;;;;;;;6.27;4.83;;;3.90;99.90;;;;;;4971912;28;20496;-69
2022/11/13 05:28:16;;;;;;;5.77;3.97;;;3.80;99.90;;;;;;4985351;28;20460;-69
2022/11/13 05:30:43;;;;;;;6.80;3.80;;;3.60;99.90;;;;;;4971527;28;20944;-69
2022/11/13 05:33:10;;;;;;;10.30;4.90;;;3.60;99.90;;;;;;4985225;28;20454;-69
2022/11/13 05:35:38;;;;;;;5.27;3.90;;;3.60;99.90;;;;;;4971375;28;20831;-68
2022/11/13 05:38:05;;;;;;;5.67;5.07;;;3.60;99.90;;;;;;4972369;28;20476;-69
2022/11/13 05:40:32;;;;;;;10.63;6.37;;;3.50;99.90;;;;;;4984100;28;20784;-69
2022/11/13 05:42:58;;;;;;;10.07;5.07;;;3.60;99.90;;;;;;4977636;28;20455;-69
2022/11/13 05:45:25;;;;;;;6.63;4.27;;;3.40;99.90;;;;;;4979081;28;20492;-69
2022/11/13 05:47:52;;;;;;;5.00;3.27;;;3.30;99.90;;;;;;4977033;28;20467;-69
2022/11/13 05:50:20;;;;;;;6.80;3.67;;;3.20;99.90;;;;;;4978588;28;20566;-69
2022/11/13 05:52:48;;;;;;;8.40;5.10;;;3.40;99.90;;;;;;4977297;28;20453;-69
2022/11/13 05:55:15;;;;;;;4.67;3.60;;;3.40;99.90;;;;;;4978266;28;20916;-69
2022/11/13 05:57:42;;;;;;;7.80;4.23;;;3.50;99.90;;;;;;4971287;28;20463;-69
2022/11/13 06:00:10;;;;;;;11.77;4.20;;;3.40;99.90;;;;;;4972188;28;20541;-69
2022/11/13 06:02:37;;;;;;;3.73;3.10;;;3.30;99.90;;;;;;4991360;28;20798;-68
2022/11/13 06:05:04;;;;;;;4.00;3.17;;;3.50;99.90;;;;;;4977535;28;20558;-69
2022/11/13 06:07:30;;;;;;;6.67;4.23;;;3.20;99.90;;;;;;4980681;28;20470;-69
2022/11/13 06:09:58;;;;;;;8.43;3.80;;;3.10;99.90;;;;;;4973618;28;20466;-69
2022/11/13 06:12:25;;;;;;;10.80;3.60;;;3.30;99.90;;;;;;4980254;28;20458;-69
2022/11/13 06:14:52;;;;;;;9.10;4.87;;;3.40;99.90;;;;;;4981755;28;20820;-69
2022/11/13 06:17:19;;;;;;;5.20;3.87;;;3.70;99.90;;;;;;4980747;28;20451;-69
2022/11/13 06:19:47;;;;;;;7.63;4.60;;;3.70;99.90;;;;;;4987972;28;20478;-69
2022/11/13 06:22:14;;;;;;;5.90;3.77;;;3.60;99.90;;;;;;4986828;28;20540;-69
2022/11/13 06:24:40;;;;;;;8.20;4.63;;;3.60;99.90;;;;;;4984774;28;20488;-69
2022/11/13 06:27:08;;;;;;;7.40;4.17;;;3.70;99.90;;;;;;4985082;28;20454;-69
2022/11/13 06:29:36;;;;;;;4.53;4.10;;;3.50;99.90;;;;;;4980133;28;20451;-68
2022/11/13 06:32:02;;;;;;;11.30;4.40;;;3.70;99.90;;;;;;4984958;28;20811;-69
2022/11/13 06:34:29;;;;;;;6.73;5.00;;;3.50;99.90;;;;;;4979268;28;20992;-69
2022/11/13 06:36:56;;;;;;;7.20;4.20;;;3.60;99.90;;;;;;4976291;28;20947;-69
2022/11/13 06:39:23;;;;;;;7.33;4.17;;;3.60;99.90;;;;;;4991960;28;20937;-69
2022/11/13 06:41:50;;;;;;;6.13;2.97;;;3.70;99.90;;;;;;4983174;28;20456;-69
2022/11/13 06:44:18;;;;;;;4.80;3.93;;;3.60;99.90;;;;;;4987979;28;20477;-69
2022/11/13 06:46:44;;;;;;;9.70;5.07;;;3.60;99.90;;;;;;4985584;28;20452;-69
2022/11/13 06:49:11;;;;;;;7.27;4.77;;;3.20;99.90;;;;;;4991595;28;20464;-69
2022/11/13 06:51:38;;;;;;;5.47;3.23;;;3.30;99.90;;;;;;4979399;28;20809;-68
2022/11/13 06:54:05;;;;;;;8.63;4.17;;;3.40;99.90;;;;;;4987318;28;20452;-69
2022/11/13 06:56:32;;;;;;;5.73;4.13;;;3.30;99.90;;;;;;4984405;28;20461;-69
2022/11/13 06:58:59;;;;;;;6.27;4.33;;;3.30;99.90;;;;;;4988816;28;20468;-68
2022/11/13 07:01:27;;;;;;;6.10;3.80;;;3.60;99.90;;;;;;4989268;28;20540;-69
2022/11/13 07:03:54;;;;;;;5.63;4.83;;;3.80;99.90;;;;;;4977712;28;20454;-68
2022/11/13 07:06:22;;;;;;;7.47;5.23;;;3.70;99.90;;;;;;4975270;28;20490;-69
2022/11/13 07:08:49;;;;;;;4.73;3.27;;;3.90;99.90;;;;;;4981816;28;20567;-68
2022/11/13 07:11:18;;;;;;;6.03;3.53;;;3.60;99.90;;;;;;4976968;28;20454;-68
2022/11/13 07:13:45;;;;;;;6.37;3.87;;;3.50;99.90;;;;;;4986063;28;20809;-70
2022/11/13 07:16:13;;;;;;;19.33;8.70;;;3.60;99.90;;;;;;4987354;28;20458;-71
2022/11/13 07:18:42;;;;;;;7.23;4.20;;;3.90;99.90;;;;;;4989413;28;20449;-68
2022/11/13 07:21:11;;;;;;;6.03;4.57;;;4.00;99.90;;;;;;4978476;28;20812;-69
2022/11/13 07:23:41;;;;;;;4.70;3.90;;;4.00;99.90;;;;;;4985599;28;20459;-67
2022/11/13 07:26:09;;;;;;;9.50;4.17;;;4.10;99.90;;;;;;4979791;28;20561;-68
2022/11/13 07:28:36;;;;;;;8.13;3.53;;;4.00;99.90;;;;;;4980890;28;20457;-69
2022/11/13 07:31:03;;;;;;;8.10;3.60;;;4.20;99.90;;;;;;4992500;28;20961;-68
2022/11/13 07:33:30;;;;;;;9.20;6.03;;;4.40;99.90;;;;;;4993665;28;20453;-69
2022/11/13 07:35:58;;;;;;;4.67;3.60;;;4.60;99.90;;;;;;4985166;28;20447;-71
2022/11/13 07:38:25;;;;;;;7.37;4.20;;;4.60;99.90;;;;;;4992718;28;20459;-69
2022/11/13 07:40:52;;;;;;;8.13;4.50;;;4.60;99.90;;;;;;4986070;28;20536;-71
2022/11/13 07:43:19;;;;;;;5.20;3.63;;;4.80;99.90;;;;;;4991357;28;20452;-70
2022/11/13 07:45:46;;;;;;;8.77;5.00;;;5.00;99.90;;;;;;4984633;28;20473;-74
2022/11/13 07:48:12;;;;;;;5.70;4.70;;;5.00;99.90;;;;;;4993440;28;20459;-71
2022/11/13 07:50:39;;;;;;;5.90;4.33;;;5.10;99.90;;;;;;4976801;28;20470;-68
2022/11/13 07:53:09;;;;;;;5.80;4.03;;;5.30;99.90;;;;;;4983987;28;20492;-68
2022/11/13 07:55:36;;;;;;;5.30;3.40;;;5.10;99.90;;;;;;4984241;28;20462;-69
2022/11/13 07:58:05;;;;;;;5.17;3.97;;;5.40;99.90;;;;;;4981628;28;21035;-70
2022/11/13 08:00:34;;;;;;;5.17;3.73;;;5.80;99.90;;;;;;4989546;28;20488;-70
2022/11/13 08:03:05;;;;;;;3.63;3.10;;;5.60;8.80;;;;;;4990407;28;20462;-70
2022/11/13 08:05:32;;;;;;;6.73;5.27;;;5.40;39.80;;;;;;4985973;28;20472;-70
2022/11/13 08:07:58;;;;;;;3.60;2.90;;;5.30;71.30;;;;;;4991258;28;20459;-70
2022/11/13 08:10:27;;;;;;;4.50;3.80;;;5.30;24.40;;;;;;4980863;28;20487;-70
2022/11/13 08:12:59;;;;;;;4.80;3.07;;;5.20;36.00;;;;;;4982234;28;20447;-70
2022/11/13 08:15:26;;;;;;;5.20;3.80;;;5.20;86.10;;;;;;4981920;28;20459;-70
2022/11/13 08:17:54;;;;;;;5.90;4.20;;;5.20;32.60;;;;;;4977295;28;20781;-69
2022/11/13 08:20:21;;;;;;;7.20;3.77;;;5.20;52.10;;;;;;4981009;28;20447;-70
2022/11/13 08:22:48;;;;;;;4.57;3.50;;;5.20;48.10;;;;;;4979308;28;20472;-70
2022/11/13 08:25:15;;;;;;;4.77;4.13;;;5.20;30.70;;;;;;4981294;28;20487;-70
2022/11/13 08:27:43;;;;;;;5.90;4.07;;;5.20;1.00;;;;;;4980603;28;20531;-70
2022/11/13 08:30:11;;;;;;;5.67;5.07;;;5.30;1.00;;;;;;4976251;28;20464;-70
2022/11/13 08:32:38;;;;;;;11.53;4.53;;;5.20;1.00;;;;;;4984998;28;20452;-68
2022/11/13 08:35:06;;;;;;;5.67;3.80;;;5.30;1.00;;;;;;4973767;28;20472;-69
2022/11/13 08:37:33;;;;;;;5.03;4.53;;;5.30;1.00;;;;;;4983717;28;20442;-70
2022/11/13 08:40:00;;;;;;;5.97;4.80;;;5.20;1.00;;;;;;4990566;28;20456;-70
2022/11/13 08:42:27;;;;;;;6.13;4.50;;;5.30;16.80;;;;;;4988355;28;20466;-70
2022/11/13 08:44:55;;;;;;;4.77;4.27;;;5.30;1.00;;;;;;4983623;28;20487;-70
2022/11/13 08:47:22;;;;;;;7.83;4.13;;;5.30;1.00;;;;;;4985527;28;20895;-70
2022/11/13 08:49:48;;;;;;;4.50;3.77;;;5.30;1.00;;;;;;4989855;28;20734;-71
2022/11/13 08:52:15;;;;;;;5.60;3.27;;;5.30;1.00;;;;;;4987375;28;20463;-71
2022/11/13 08:54:42;;;;;;;5.60;4.37;;;5.30;1.00;;;;;;4989196;28;20457;-70
2022/11/13 08:57:09;;;;;;;6.73;4.43;;;5.30;1.00;;;;;;4984027;28;20464;-71
2022/11/13 08:59:35;;;;;;;5.30;4.50;;;5.30;1.00;;;;;;4973159;28;20825;-68
2022/11/13 09:02:04;;;;;;;4.70;3.50;;;5.10;1.00;;;;;;4986254;28;20508;-71
2022/11/13 09:04:31;;;;;;;4.53;4.13;;;5.30;1.00;;;;;;4978621;28;20445;-71
2022/11/13 09:06:58;;;;;;;6.13;4.70;;;5.30;1.00;;;;;;4985638;28;20497;-71
2022/11/13 09:09:24;;;;;;;11.83;5.23;;;5.30;1.00;;;;;;4978275;28;20460;-71
2022/11/13 09:11:51;;;;;;;6.10;4.43;;;5.50;99.90;;;;;;4977811;28;20966;-71
2022/11/13 09:14:18;;;;;;;6.20;4.37;;;5.70;99.90;;;;;;4975922;28;20456;-70
2022/11/13 09:16:45;;;;;;;6.10;4.47;;;5.60;99.90;;;;;;4985776;28;20462;-70
2022/11/13 09:19:13;;;;;;;6.07;4.83;;;5.50;11.10;;;;;;4972981;28;20455;-70
2022/11/13 09:21:40;;;;;;;7.10;4.83;;;5.50;46.00;;;;;;4984850;28;20460;-70
2022/11/13 09:24:07;;;;;;;9.30;4.60;;;5.50;1.00;;;;;;4983332;28;20467;-70
2022/11/13 09:26:35;;;;;;;7.77;4.33;;;5.50;12.80;;;;;;4987479;28;20841;-71
2022/11/13 09:29:02;;;;;;;6.47;4.77;;;5.60;1.00;;;;;;4976411;28;20481;-72
2022/11/13 09:31:29;;;;;;;7.20;5.00;;;5.60;1.00;;;;;;4985224;28;20923;-71
2022/11/13 09:33:56;;;;;;;6.20;5.00;;;5.60;1.00;;;;;;4984368;28;20537;-69
2022/11/13 09:36:24;;;;;;;6.03;5.37;;;5.50;1.00;;;;;;4985585;28;20452;-69
2022/11/13 09:38:50;;;;;;;5.73;4.60;;;5.60;1.00;;;;;;4979681;28;20452;-68
2022/11/13 09:41:20;;;;;;;4.50;3.40;;;5.60;1.00;;;;;;4974741;28;20957;-69
2022/11/13 09:43:50;;;;;;;7.03;4.53;;;5.70;1.00;;;;;;4990624;28;20978;-71
2022/11/13 09:46:22;;;;;;;5.90;4.70;;;5.70;1.00;;;;;;4972644;28;20477;-72
2022/11/13 09:48:52;;;;;;;5.50;4.80;;;5.70;1.00;;;;;;4990307;28;20531;-71
2022/11/13 09:51:22;;;;;;;6.57;4.57;;;5.80;1.00;;;;;;4982182;28;20828;-71
2022/11/13 09:53:50;;;;;;;6.93;4.00;;;6.00;1.00;;;;;;4985366;28;20837;-71
2022/11/13 09:56:27;;;;;;;5.87;4.10;;;6.50;1.00;;;;;;4982536;28;20464;-73
2022/11/13 09:59:01;;;;;;;4.87;4.33;;;6.40;99.90;;;;;;4984575;28;20460;-72
2022/11/13 10:01:34;;;;;;;7.40;5.10;;;6.30;99.90;;;;;;4983024;28;20492;-71
2022/11/13 10:04:06;;;;;;;6.93;4.80;;;6.30;99.90;;;;;;4976151;28;20515;-70
2022/11/13 10:06:48;;;;;;;5.67;4.23;;;6.30;99.90;;;;;;4986377;28;20561;-70
2022/11/13 10:09:25;;;;;;;7.07;4.53;;;6.40;99.90;;;;;;4975010;28;20781;-71
2022/11/13 10:11:55;;;;;;;5.00;4.50;;;6.50;99.90;;;;;;4983233;28;20445;-71
2022/11/13 10:14:28;;;;;;;6.00;3.90;;;6.60;99.90;;;;;;4978012;28;20458;-71
2022/11/13 10:16:59;;;;;;;7.83;4.80;;;6.60;99.90;;;;;;4983470;28;20460;-71
2022/11/13 10:19:30;;;;;;;8.60;4.70;;;6.60;99.90;;;;;;4976925;28;20474;-70
2022/11/13 10:22:03;;;;;;;14.23;4.63;;;6.80;1.00;;;;;;4973794;28;20456;-70
2022/11/13 10:24:39;;;;;;;6.20;4.67;;;6.90;1.00;;;;;;4973660;28;20458;-71
2022/11/13 10:27:09;;;;;;;5.37;4.33;;;6.90;1.00;;;;;;4979584;28;20980;-69
2022/11/13 10:29:36;;;;;;;5.63;4.53;;;7.00;1.00;;;;;;4972253;28;20446;-70
2022/11/13 10:32:16;;;;;;;6.03;5.43;;;7.10;1.00;;;;;;4978472;28;20478;-71
2022/11/13 10:34:46;;;;;;;6.67;4.77;;;7.10;1.00;;;;;;4973309;28;20447;-70
2022/11/13 10:37:39;;;;;;;7.20;5.57;;;7.20;1.00;;;;;;4980751;28;20824;-70
2022/11/13 10:40:08;;;;;;;6.83;5.00;;;7.30;1.00;;;;;;4981955;28;21039;-70
2022/11/13 10:42:39;;;;;;;8.23;4.53;;;7.40;1.00;;;;;;4984498;28;20962;-70
2022/11/13 10:45:14;;;;;;;5.83;5.30;;;7.50;99.90;;;;;;4984803;28;20460;-71
2022/11/13 10:47:44;;;;;;;5.80;4.27;;;;;;;;;;4981318;28;20459;-71
2022/11/13 10:50:18;;;;;;;6.23;4.97;;;7.60;99.90;;;;;;4987823;28;20451;-69
2022/11/13 10:52:46;;;;;;;6.50;4.00;;;7.60;38.80;;;;;;4986953;28;20458;-72
2022/11/13 10:55:22;;;;;;;9.33;5.90;;;7.70;91.30;;;;;;4986992;28;20777;-72
2022/11/13 10:57:56;;;;;;;8.30;5.40;;;7.80;1.00;;;;;;4982070;28;20458;-71
2022/11/13 11:00:26;;;;;;;13.33;7.10;;;7.90;1.00;;;;;;4974753;28;20493;-71
2022/11/13 11:02:53;;;;;;;9.77;4.87;;;7.90;1.00;;;;;;4977555;28;20461;-71
2022/11/13 11:05:22;;;;;;;7.50;5.23;;;8.00;99.90;;;;;;4984992;28;20458;-71
2022/11/13 11:07:49;;;;;;;7.00;3.90;;;8.10;99.90;;;;;;4985273;28;20460;-71
2022/11/13 11:10:27;;;;;;;4.67;3.97;;;8.10;99.90;;;;;;4973162;28;20455;-71
2022/11/13 11:12:53;;;;;;;5.40;4.50;;;8.20;29.70;;;;;;4990606;28;20449;-71
2022/11/13 11:15:25;;;;;;;5.90;4.33;;;8.30;40.40;;;;;;4990919;28;20538;-71
2022/11/13 11:17:57;;;;;;;7.30;4.80;;;8.30;77.20;;;;;;4990942;28;20537;-71
2022/11/13 11:20:40;;;;;;;7.30;5.37;;;8.40;1.00;;;;;;4989689;28;20464;-69
2022/11/13 11:23:21;;;;;;;7.53;4.40;;;8.40;1.00;;;;;;4990860;28;20956;-71
2022/11/13 11:25:56;;;;;;;7.23;4.77;;;8.50;1.00;;;;;;4990637;28;20991;-71
2022/11/13 11:28:30;;;;;;;5.97;4.50;;;8.60;1.00;;;;;;4977529;28;20448;-72
2022/11/13 11:31:04;;;;;;;7.23;4.90;;;8.70;99.90;;;;;;4986870;28;20589;-70
2022/11/13 11:33:35;;;;;;;6.47;5.30;;;8.70;99.90;;;;;;4972560;28;20461;-71
2022/11/13 11:36:09;;;;;;;4.77;4.30;;;8.80;99.90;;;;;;4985054;28;20456;-71
2022/11/13 11:38:44;;;;;;;7.53;4.70;;;8.90;10.70;;;;;;4971740;28;20462;-70
2022/11/13 11:41:14;;;;;;;5.50;4.83;;;8.90;1.00;;;;;;4987873;28;20980;-72
2022/11/13 11:43:43;;;;;;;7.53;5.00;;;8.90;1.00;;;;;;4984297;28;20446;-72
2022/11/13 11:46:12;;;;;;;6.50;5.30;;;9.00;1.00;;;;;;4991386;28;20986;-71
2022/11/13 11:48:39;;;;;;;8.50;5.77;;;9.20;1.00;;;;;;4987069;28;20822;-69
2022/11/13 11:51:17;;;;;;;7.00;4.53;;;9.20;99.90;;;;;;4987375;28;20474;-72
2022/11/13 11:53:52;;;;;;;7.07;4.50;;;9.30;99.90;;;;;;4979089;28;20573;-70
2022/11/13 11:56:27;;;;;;;6.53;4.63;;;9.30;26.80;;;;;;4971882;28;20461;-70
2022/11/13 11:59:14;;;;;;;7.57;4.83;;;9.40;99.90;;;;;;4977906;28;20447;-71
2022/11/13 12:01:57;;;;;;;7.70;5.00;;;9.50;1.00;;;;;;4991053;28;20836;-70
2022/11/13 12:04:42;;;;;;;7.60;6.00;;;9.60;1.00;;;;;;4982760;28;20457;-71
2022/11/13 12:07:29;;;;;;;5.90;4.30;;;9.70;1.00;;;;;;4976756;28;20501;-71
2022/11/13 12:10:02;;;;;;;7.23;4.10;;;9.80;1.00;;;;;;4973716;28;20635;-70
2022/11/13 12:12:44;;;;;;;6.70;5.77;;;9.80;1.00;;;;;;4980451;28;20471;-71
2022/11/13 12:15:18;;;;;;;6.33;4.77;;;9.90;99.90;;;;;;4978176;28;20459;-71
2022/11/13 12:17:55;;;;;;;7.17;4.37;;;9.90;99.90;;;;;;4978567;28;20456;-71
2022/11/13 12:20:33;;;;;;;6.20;4.90;;;10.00;99.90;;;;;;4971205;28;20449;-69
2022/11/13 12:23:13;;;;;;;7.60;5.77;;;10.10;99.90;;;;;;4976740;28;20467;-71
2022/11/13 12:25:48;;;;;;;9.43;5.30;;;10.10;99.90;;;;;;4988944;28;20452;-73
2022/11/13 12:28:20;;;;;;;5.57;5.07;;;10.20;43.20;;;;;;4976245;28;20736;-71
2022/11/13 12:30:56;;;;;;;6.70;5.10;;;10.20;28.90;;;;;;4989637;28;20464;-79
2022/11/13 12:33:33;;;;;;;6.53;4.80;;;10.30;1.00;;;;;;4977118;28;21252;-71
2022/11/13 12:36:00;;;;;;;5.30;4.10;;;10.40;1.00;;;;;;4986714;28;20448;-70
2022/11/13 12:38:41;;;;;;;7.67;4.87;;;10.40;1.00;;;;;;4989442;28;20452;-72
2022/11/13 12:41:15;;;;;;;5.13;4.63;;;10.40;1.00;;;;;;4982466;28;20450;-71
2022/11/13 12:43:59;;;;;;;8.93;4.87;;;10.50;1.00;;;;;;4975265;28;20457;-68
2022/11/13 12:46:35;;;;;;;5.70;4.30;;;10.60;1.00;;;;;;4988507;28;20823;-68
2022/11/13 12:49:01;;;;;;;6.07;5.47;;;10.70;1.00;;;;;;4974841;28;20539;-70
2022/11/13 12:51:38;;;;;;;5.90;4.90;;;10.60;1.00;;;;;;4978879;28;20468;-70
2022/11/13 12:54:05;;;;;;;6.33;4.63;;;10.70;1.00;;;;;;4974179;28;20445;-70
2022/11/13 12:56:33;;;;;;;7.77;4.47;;;10.70;1.00;;;;;;4979922;28;21027;-70
2022/11/13 12:59:09;;;;;;;4.47;4.00;;;10.70;1.00;;;;;;4974486;28;20572;-70
2022/11/13 13:01:44;;;;;;;6.10;4.70;;;10.80;1.00;;;;;;4983129;28;20845;-69
2022/11/13 13:04:39;;;;;;;8.60;4.37;;;10.90;99.90;;;;;;4970622;28;20493;-70
2022/11/13 13:07:23;;;;;;;6.17;4.93;;;11.00;99.90;;;;;;4983780;28;20490;-70
2022/11/13 13:10:05;;;;;;;6.00;4.90;;;11.10;99.90;;;;;;4984105;28;20487;-69
2022/11/13 13:12:43;;;;;;;5.93;4.23;;;11.20;99.90;;;;;;4975834;28;21334;-70
2022/11/13 13:15:30;;;;;;;7.30;4.60;;;11.50;99.90;;;;;;4981273;28;20466;-70
2022/11/13 13:18:10;;;;;;;6.50;5.03;;;11.50;1.00;;;;;;4981933;28;20448;-71
2022/11/13 13:20:39;;;;;;;6.77;4.50;;;11.50;1.00;;;;;;4990885;28;20476;-69
2022/11/13 13:23:10;;;;;;;5.73;4.80;;;11.60;30.00;;;;;;4991613;28;20461;-70
2022/11/13 13:25:37;;;;;;;6.50;5.20;;;;;;;;;;4988046;28;20497;-68
2022/11/13 13:28:20;;;;;;;5.43;4.40;;;12.10;1.00;;;;;;4991250;28;20493;-70